sensor_id;sensor_type;location;lat;lon;timestamp;P1;durP1;ratioP1;P2;durP2;ratioP2
17763;SDS011;22245;52.832;13.816;2023-09-12T00:02:30;19.40;;;13.10;;
17763;SDS011;22245;52.832;13.816;2023-09-12T00:05:52;18.02;;;12.55;;
17763;SDS011;22245;52.832;13.816;2023-09-12T00:09:14;19.67;;;12.10;;
17763;SDS011;22245;52.832;13.816;2023-09-12T00:12:35;15.98;;;12.45;;
17763;SDS011;22245;52.832;13.816;2023-09-12T00:15:57;20.17;;;11.98;;
17763;SDS011;22245;52.832;13.816;2023-09-12T00:19:20;17.63;;;12.63;;
17763;SDS011;22245;52.832;13.816;2023-09-12T00:22:41;19.00;;;12.27;;
17763;SDS011;22245;52.832;13.816;2023-09-12T00:26:03;21.58;;;12.38;;
17763;SDS011;22245;52.832;13.816;2023-09-12T00:29:24;17.70;;;12.25;;
17763;SDS011;22245;52.832;13.816;2023-09-12T00:32:45;20.15;;;12.60;;
17763;SDS011;22245;52.832;13.816;2023-09-12T00:36:08;17.77;;;12.23;;
17763;SDS011;22245;52.832;13.816;2023-09-12T00:39:30;15.73;;;11.48;;
17763;SDS011;22245;52.832;13.816;2023-09-12T00:42:52;21.00;;;12.52;;
17763;SDS011;22245;52.832;13.816;2023-09-12T00:46:13;15.02;;;12.55;;
17763;SDS011;22245;52.832;13.816;2023-09-12T00:49:39;16.02;;;11.77;;
17763;SDS011;22245;52.832;13.816;2023-09-12T00:53:03;18.35;;;12.38;;
17763;SDS011;22245;52.832;13.816;2023-09-12T00:56:26;18.52;;;12.35;;
17763;SDS011;22245;52.832;13.816;2023-09-12T00:59:48;16.77;;;12.27;;
17763;SDS011;22245;52.832;13.816;2023-09-12T01:03:10;15.63;;;12.02;;
17763;SDS011;22245;52.832;13.816;2023-09-12T01:06:32;17.30;;;12.20;;
17763;SDS011;22245;52.832;13.816;2023-09-12T01:09:58;20.38;;;12.85;;
17763;SDS011;22245;52.832;13.816;2023-09-12T01:13:19;17.45;;;12.10;;
17763;SDS011;22245;52.832;13.816;2023-09-12T01:16:42;18.98;;;12.65;;
17763;SDS011;22245;52.832;13.816;2023-09-12T01:20:04;18.08;;;12.45;;
17763;SDS011;22245;52.832;13.816;2023-09-12T01:23:33;15.68;;;11.95;;
17763;SDS011;22245;52.832;13.816;2023-09-12T01:27:17;19.67;;;12.88;;
17763;SDS011;22245;52.832;13.816;2023-09-12T01:30:41;19.40;;;12.63;;
17763;SDS011;22245;52.832;13.816;2023-09-12T01:34:09;17.15;;;12.55;;
17763;SDS011;22245;52.832;13.816;2023-09-12T01:37:31;17.92;;;12.35;;
17763;SDS011;22245;52.832;13.816;2023-09-12T01:40:53;14.10;;;11.77;;
17763;SDS011;22245;52.832;13.816;2023-09-12T01:44:18;19.42;;;12.85;;
17763;SDS011;22245;52.832;13.816;2023-09-12T01:47:42;16.95;;;12.15;;
17763;SDS011;22245;52.832;13.816;2023-09-12T01:51:06;19.75;;;12.50;;
17763;SDS011;22245;52.832;13.816;2023-09-12T01:54:28;17.23;;;12.52;;
17763;SDS011;22245;52.832;13.816;2023-09-12T01:57:50;16.73;;;12.10;;
17763;SDS011;22245;52.832;13.816;2023-09-12T02:01:13;16.52;;;12.70;;
17763;SDS011;22245;52.832;13.816;2023-09-12T02:04:35;17.75;;;12.32;;
17763;SDS011;22245;52.832;13.816;2023-09-12T02:07:56;17.35;;;12.52;;
17763;SDS011;22245;52.832;13.816;2023-09-12T02:11:21;18.52;;;12.00;;
17763;SDS011;22245;52.832;13.816;2023-09-12T02:14:43;19.35;;;12.93;;
17763;SDS011;22245;52.832;13.816;2023-09-12T02:18:06;17.50;;;12.43;;
17763;SDS011;22245;52.832;13.816;2023-09-12T02:21:28;16.88;;;12.43;;
17763;SDS011;22245;52.832;13.816;2023-09-12T02:24:50;17.15;;;12.30;;
17763;SDS011;22245;52.832;13.816;2023-09-12T02:28:11;15.55;;;12.45;;
17763;SDS011;22245;52.832;13.816;2023-09-12T02:31:33;18.80;;;12.05;;
17763;SDS011;22245;52.832;13.816;2023-09-12T02:34:56;16.88;;;12.13;;
17763;SDS011;22245;52.832;13.816;2023-09-12T02:38:18;19.92;;;13.40;;
17763;SDS011;22245;52.832;13.816;2023-09-12T02:41:40;20.02;;;12.90;;
17763;SDS011;22245;52.832;13.816;2023-09-12T02:45:02;15.80;;;12.68;;
17763;SDS011;22245;52.832;13.816;2023-09-12T02:48:25;15.88;;;11.77;;
17763;SDS011;22245;52.832;13.816;2023-09-12T02:51:48;17.83;;;12.43;;
17763;SDS011;22245;52.832;13.816;2023-09-12T02:55:10;19.30;;;13.32;;
17763;SDS011;22245;52.832;13.816;2023-09-12T02:58:31;17.33;;;12.35;;
17763;SDS011;22245;52.832;13.816;2023-09-12T03:01:53;17.42;;;12.05;;
17763;SDS011;22245;52.832;13.816;2023-09-12T03:05:14;18.77;;;12.48;;
17763;SDS011;22245;52.832;13.816;2023-09-12T03:08:37;18.05;;;12.38;;
17763;SDS011;22245;52.832;13.816;2023-09-12T03:12:00;15.32;;;13.07;;
17763;SDS011;22245;52.832;13.816;2023-09-12T03:15:22;18.35;;;13.35;;
17763;SDS011;22245;52.832;13.816;2023-09-12T03:18:44;21.17;;;13.05;;
17763;SDS011;22245;52.832;13.816;2023-09-12T03:22:06;16.48;;;12.32;;
17763;SDS011;22245;52.832;13.816;2023-09-12T03:25:29;18.77;;;13.48;;
17763;SDS011;22245;52.832;13.816;2023-09-12T03:28:51;17.33;;;12.52;;
17763;SDS011;22245;52.832;13.816;2023-09-12T03:32:12;14.98;;;12.43;;
17763;SDS011;22245;52.832;13.816;2023-09-12T03:35:34;17.30;;;12.75;;
17763;SDS011;22245;52.832;13.816;2023-09-12T03:38:56;18.35;;;12.93;;
17763;SDS011;22245;52.832;13.816;2023-09-12T03:42:20;16.35;;;12.30;;
17763;SDS011;22245;52.832;13.816;2023-09-12T03:45:42;18.40;;;12.50;;
17763;SDS011;22245;52.832;13.816;2023-09-12T03:49:04;19.60;;;12.80;;
17763;SDS011;22245;52.832;13.816;2023-09-12T03:52:26;20.05;;;12.52;;
17763;SDS011;22245;52.832;13.816;2023-09-12T03:55:48;17.63;;;12.82;;
17763;SDS011;22245;52.832;13.816;2023-09-12T03:59:11;15.73;;;12.50;;
17763;SDS011;22245;52.832;13.816;2023-09-12T04:02:33;20.38;;;13.10;;
17763;SDS011;22245;52.832;13.816;2023-09-12T04:05:54;17.40;;;13.10;;
17763;SDS011;22245;52.832;13.816;2023-09-12T04:09:16;19.42;;;13.27;;
17763;SDS011;22245;52.832;13.816;2023-09-12T04:12:37;16.25;;;12.90;;
17763;SDS011;22245;52.832;13.816;2023-09-12T04:16:00;17.25;;;13.43;;
17763;SDS011;22245;52.832;13.816;2023-09-12T04:19:22;16.33;;;13.32;;
17763;SDS011;22245;52.832;13.816;2023-09-12T04:22:44;18.50;;;12.88;;
17763;SDS011;22245;52.832;13.816;2023-09-12T04:26:06;17.92;;;12.65;;
17763;SDS011;22245;52.832;13.816;2023-09-12T04:29:28;16.77;;;12.85;;
17763;SDS011;22245;52.832;13.816;2023-09-12T04:32:51;16.10;;;12.13;;
17763;SDS011;22245;52.832;13.816;2023-09-12T04:36:13;15.55;;;12.52;;
17763;SDS011;22245;52.832;13.816;2023-09-12T04:39:34;19.05;;;13.45;;
17763;SDS011;22245;52.832;13.816;2023-09-12T04:42:56;20.48;;;13.07;;
17763;SDS011;22245;52.832;13.816;2023-09-12T04:46:18;21.42;;;13.48;;
17763;SDS011;22245;52.832;13.816;2023-09-12T04:49:43;17.88;;;12.75;;
17763;SDS011;22245;52.832;13.816;2023-09-12T04:53:05;17.73;;;12.48;;
17763;SDS011;22245;52.832;13.816;2023-09-12T04:56:27;17.58;;;12.65;;
17763;SDS011;22245;52.832;13.816;2023-09-12T04:59:50;16.83;;;12.98;;
17763;SDS011;22245;52.832;13.816;2023-09-12T05:03:12;21.50;;;13.35;;
17763;SDS011;22245;52.832;13.816;2023-09-12T05:06:35;20.20;;;13.32;;
17763;SDS011;22245;52.832;13.816;2023-09-12T05:09:56;20.92;;;13.60;;
17763;SDS011;22245;52.832;13.816;2023-09-12T05:13:19;17.95;;;12.65;;
17763;SDS011;22245;52.832;13.816;2023-09-12T05:16:40;19.08;;;13.32;;
17763;SDS011;22245;52.832;13.816;2023-09-12T05:20:02;17.15;;;13.07;;
17763;SDS011;22245;52.832;13.816;2023-09-12T05:23:28;18.02;;;12.93;;
17763;SDS011;22245;52.832;13.816;2023-09-12T05:26:50;21.83;;;13.32;;
17763;SDS011;22245;52.832;13.816;2023-09-12T05:30:12;19.15;;;13.65;;
17763;SDS011;22245;52.832;13.816;2023-09-12T05:33:35;22.83;;;13.88;;
17763;SDS011;22245;52.832;13.816;2023-09-12T05:36:57;20.17;;;13.65;;
17763;SDS011;22245;52.832;13.816;2023-09-12T05:40:22;23.95;;;13.80;;
17763;SDS011;22245;52.832;13.816;2023-09-12T05:43:43;23.63;;;13.25;;
17763;SDS011;22245;52.832;13.816;2023-09-12T05:47:05;21.23;;;14.40;;
17763;SDS011;22245;52.832;13.816;2023-09-12T05:50:28;23.00;;;13.90;;
17763;SDS011;22245;52.832;13.816;2023-09-12T05:53:49;25.00;;;13.82;;
17763;SDS011;22245;52.832;13.816;2023-09-12T05:57:12;25.48;;;14.57;;
17763;SDS011;22245;52.832;13.816;2023-09-12T06:00:35;33.83;;;13.70;;
17763;SDS011;22245;52.832;13.816;2023-09-12T06:03:57;20.27;;;13.98;;
17763;SDS011;22245;52.832;13.816;2023-09-12T06:07:19;19.35;;;14.48;;
17763;SDS011;22245;52.832;13.816;2023-09-12T06:10:40;18.23;;;13.30;;
17763;SDS011;22245;52.832;13.816;2023-09-12T06:14:03;20.90;;;13.57;;
17763;SDS011;22245;52.832;13.816;2023-09-12T06:17:25;21.48;;;14.30;;
17763;SDS011;22245;52.832;13.816;2023-09-12T06:20:46;21.33;;;14.80;;
17763;SDS011;22245;52.832;13.816;2023-09-12T06:24:08;31.00;;;15.20;;
17763;SDS011;22245;52.832;13.816;2023-09-12T06:27:32;23.80;;;14.65;;
17763;SDS011;22245;52.832;13.816;2023-09-12T06:30:55;24.42;;;14.38;;
17763;SDS011;22245;52.832;13.816;2023-09-12T06:34:17;21.52;;;14.57;;
17763;SDS011;22245;52.832;13.816;2023-09-12T06:37:39;24.48;;;14.25;;
17763;SDS011;22245;52.832;13.816;2023-09-12T06:41:00;20.67;;;13.35;;
17763;SDS011;22245;52.832;13.816;2023-09-12T06:44:24;20.17;;;14.27;;
17763;SDS011;22245;52.832;13.816;2023-09-12T06:47:49;21.95;;;15.15;;
17763;SDS011;22245;52.832;13.816;2023-09-12T06:51:10;26.33;;;15.30;;
17763;SDS011;22245;52.832;13.816;2023-09-12T06:54:36;18.13;;;13.80;;
17763;SDS011;22245;52.832;13.816;2023-09-12T06:57:58;21.35;;;14.55;;
17763;SDS011;22245;52.832;13.816;2023-09-12T07:01:19;23.80;;;14.43;;
17763;SDS011;22245;52.832;13.816;2023-09-12T07:04:42;23.55;;;14.90;;
17763;SDS011;22245;52.832;13.816;2023-09-12T07:08:04;24.85;;;13.88;;
17763;SDS011;22245;52.832;13.816;2023-09-12T07:11:26;26.02;;;15.43;;
17763;SDS011;22245;52.832;13.816;2023-09-12T07:14:48;21.38;;;14.30;;
17763;SDS011;22245;52.832;13.816;2023-09-12T07:18:11;20.58;;;13.93;;
17763;SDS011;22245;52.832;13.816;2023-09-12T07:21:34;17.42;;;13.52;;
17763;SDS011;22245;52.832;13.816;2023-09-12T07:24:55;21.27;;;14.77;;
17763;SDS011;22245;52.832;13.816;2023-09-12T07:28:20;20.30;;;14.27;;
17763;SDS011;22245;52.832;13.816;2023-09-12T07:31:42;20.92;;;14.93;;
17763;SDS011;22245;52.832;13.816;2023-09-12T07:35:05;23.73;;;14.55;;
17763;SDS011;22245;52.832;13.816;2023-09-12T07:38:28;17.80;;;13.25;;
17763;SDS011;22245;52.832;13.816;2023-09-12T07:41:50;16.40;;;12.98;;
17763;SDS011;22245;52.832;13.816;2023-09-12T07:45:12;17.02;;;12.73;;
17763;SDS011;22245;52.832;13.816;2023-09-12T07:48:34;17.98;;;13.10;;
17763;SDS011;22245;52.832;13.816;2023-09-12T07:51:56;17.75;;;12.85;;
17763;SDS011;22245;52.832;13.816;2023-09-12T07:55:19;21.88;;;12.85;;
17763;SDS011;22245;52.832;13.816;2023-09-12T07:58:41;16.85;;;12.60;;
17763;SDS011;22245;52.832;13.816;2023-09-12T08:02:02;16.08;;;12.95;;
17763;SDS011;22245;52.832;13.816;2023-09-12T08:05:26;19.70;;;12.90;;
17763;SDS011;22245;52.832;13.816;2023-09-12T08:08:47;16.98;;;13.32;;
17763;SDS011;22245;52.832;13.816;2023-09-12T08:12:10;18.35;;;13.38;;
17763;SDS011;22245;52.832;13.816;2023-09-12T08:15:31;19.95;;;13.73;;
17763;SDS011;22245;52.832;13.816;2023-09-12T08:18:53;19.55;;;12.82;;
17763;SDS011;22245;52.832;13.816;2023-09-12T08:22:15;17.95;;;12.55;;
17763;SDS011;22245;52.832;13.816;2023-09-12T08:25:36;17.00;;;12.50;;
17763;SDS011;22245;52.832;13.816;2023-09-12T08:28:59;19.98;;;12.50;;
17763;SDS011;22245;52.832;13.816;2023-09-12T08:32:20;16.23;;;12.02;;
17763;SDS011;22245;52.832;13.816;2023-09-12T08:35:42;15.93;;;11.65;;
17763;SDS011;22245;52.832;13.816;2023-09-12T08:39:04;16.70;;;11.02;;
17763;SDS011;22245;52.832;13.816;2023-09-12T08:42:28;16.30;;;10.70;;
17763;SDS011;22245;52.832;13.816;2023-09-12T08:45:53;14.27;;;9.85;;
17763;SDS011;22245;52.832;13.816;2023-09-12T08:49:15;15.00;;;9.75;;
17763;SDS011;22245;52.832;13.816;2023-09-12T08:52:37;15.95;;;10.93;;
17763;SDS011;22245;52.832;13.816;2023-09-12T08:56:11;12.48;;;9.23;;
17763;SDS011;22245;52.832;13.816;2023-09-12T08:59:33;16.23;;;10.40;;
17763;SDS011;22245;52.832;13.816;2023-09-12T09:02:57;19.20;;;9.73;;
17763;SDS011;22245;52.832;13.816;2023-09-12T09:06:19;15.05;;;9.43;;
17763;SDS011;22245;52.832;13.816;2023-09-12T09:09:42;12.40;;;9.48;;
17763;SDS011;22245;52.832;13.816;2023-09-12T09:13:04;14.38;;;9.32;;
17763;SDS011;22245;52.832;13.816;2023-09-12T09:16:27;16.17;;;8.73;;
17763;SDS011;22245;52.832;13.816;2023-09-12T09:19:50;14.52;;;9.20;;
17763;SDS011;22245;52.832;13.816;2023-09-12T09:23:11;16.83;;;8.93;;
17763;SDS011;22245;52.832;13.816;2023-09-12T09:26:42;13.45;;;8.45;;
17763;SDS011;22245;52.832;13.816;2023-09-12T09:30:05;15.15;;;10.13;;
17763;SDS011;22245;52.832;13.816;2023-09-12T09:33:27;12.52;;;9.10;;
17763;SDS011;22245;52.832;13.816;2023-09-12T09:36:57;18.15;;;9.80;;
17763;SDS011;22245;52.832;13.816;2023-09-12T09:40:19;15.55;;;9.02;;
17763;SDS011;22245;52.832;13.816;2023-09-12T09:43:43;15.13;;;9.02;;
17763;SDS011;22245;52.832;13.816;2023-09-12T09:47:05;13.63;;;9.38;;
17763;SDS011;22245;52.832;13.816;2023-09-12T09:50:26;18.40;;;7.00;;
17763;SDS011;22245;52.832;13.816;2023-09-12T09:53:52;12.32;;;7.65;;
17763;SDS011;22245;52.832;13.816;2023-09-12T09:57:17;14.30;;;7.53;;
17763;SDS011;22245;52.832;13.816;2023-09-12T10:00:39;19.33;;;7.20;;
17763;SDS011;22245;52.832;13.816;2023-09-12T10:04:01;13.82;;;7.28;;
17763;SDS011;22245;52.832;13.816;2023-09-12T10:07:24;16.63;;;6.50;;
17763;SDS011;22245;52.832;13.816;2023-09-12T10:10:48;20.92;;;8.45;;
17763;SDS011;22245;52.832;13.816;2023-09-12T10:14:10;23.65;;;8.27;;
17763;SDS011;22245;52.832;13.816;2023-09-12T10:17:35;15.95;;;7.95;;
17763;SDS011;22245;52.832;13.816;2023-09-12T10:21:00;19.55;;;7.45;;
17763;SDS011;22245;52.832;13.816;2023-09-12T10:24:28;16.35;;;7.90;;
17763;SDS011;22245;52.832;13.816;2023-09-12T10:27:53;16.25;;;8.15;;
17763;SDS011;22245;52.832;13.816;2023-09-12T10:31:16;12.55;;;7.63;;
17763;SDS011;22245;52.832;13.816;2023-09-12T10:34:39;19.55;;;8.30;;
17763;SDS011;22245;52.832;13.816;2023-09-12T10:38:12;23.45;;;8.52;;
17763;SDS011;22245;52.832;13.816;2023-09-12T10:41:37;20.17;;;8.20;;
17763;SDS011;22245;52.832;13.816;2023-09-12T10:45:02;19.48;;;8.80;;
17763;SDS011;22245;52.832;13.816;2023-09-12T10:48:28;23.50;;;7.70;;
17763;SDS011;22245;52.832;13.816;2023-09-12T10:51:49;17.73;;;8.07;;
17763;SDS011;22245;52.832;13.816;2023-09-12T10:55:15;24.83;;;8.13;;
17763;SDS011;22245;52.832;13.816;2023-09-12T10:58:51;19.58;;;7.88;;
17763;SDS011;22245;52.832;13.816;2023-09-12T11:02:33;18.52;;;8.50;;
17763;SDS011;22245;52.832;13.816;2023-09-12T11:05:56;19.15;;;7.57;;
17763;SDS011;22245;52.832;13.816;2023-09-12T11:09:17;17.23;;;7.20;;
17763;SDS011;22245;52.832;13.816;2023-09-12T11:12:40;17.33;;;7.15;;
17763;SDS011;22245;52.832;13.816;2023-09-12T11:16:12;20.50;;;7.53;;
17763;SDS011;22245;52.832;13.816;2023-09-12T11:19:44;18.77;;;7.68;;
17763;SDS011;22245;52.832;13.816;2023-09-12T11:23:09;17.05;;;7.43;;
17763;SDS011;22245;52.832;13.816;2023-09-12T11:26:32;16.55;;;8.32;;
17763;SDS011;22245;52.832;13.816;2023-09-12T11:29:53;13.90;;;7.07;;
17763;SDS011;22245;52.832;13.816;2023-09-12T11:33:25;17.02;;;7.22;;
17763;SDS011;22245;52.832;13.816;2023-09-12T11:36:48;18.10;;;7.07;;
17763;SDS011;22245;52.832;13.816;2023-09-12T11:40:17;17.67;;;7.20;;
17763;SDS011;22245;52.832;13.816;2023-09-12T11:43:43;21.00;;;7.45;;
17763;SDS011;22245;52.832;13.816;2023-09-12T11:47:06;23.77;;;8.05;;
17763;SDS011;22245;52.832;13.816;2023-09-12T11:50:32;14.95;;;7.55;;
17763;SDS011;22245;52.832;13.816;2023-09-12T11:53:57;17.25;;;7.40;;
17763;SDS011;22245;52.832;13.816;2023-09-12T11:57:20;19.42;;;7.10;;
17763;SDS011;22245;52.832;13.816;2023-09-12T12:00:42;16.40;;;6.68;;
17763;SDS011;22245;52.832;13.816;2023-09-12T12:04:06;21.15;;;7.72;;
17763;SDS011;22245;52.832;13.816;2023-09-12T12:07:28;20.25;;;7.65;;
17763;SDS011;22245;52.832;13.816;2023-09-12T12:10:52;17.70;;;7.10;;
17763;SDS011;22245;52.832;13.816;2023-09-12T12:14:14;16.48;;;7.72;;
17763;SDS011;22245;52.832;13.816;2023-09-12T12:17:36;20.00;;;8.30;;
17763;SDS011;22245;52.832;13.816;2023-09-12T12:21:00;22.00;;;8.38;;
17763;SDS011;22245;52.832;13.816;2023-09-12T12:24:23;15.35;;;7.85;;
17763;SDS011;22245;52.832;13.816;2023-09-12T12:27:47;20.80;;;7.90;;
17763;SDS011;22245;52.832;13.816;2023-09-12T12:31:09;19.73;;;8.50;;
17763;SDS011;22245;52.832;13.816;2023-09-12T12:34:31;17.90;;;7.80;;
17763;SDS011;22245;52.832;13.816;2023-09-12T12:38:13;20.42;;;7.63;;
17763;SDS011;22245;52.832;13.816;2023-09-12T12:41:35;16.08;;;7.25;;
17763;SDS011;22245;52.832;13.816;2023-09-12T12:45:12;24.45;;;8.18;;
17763;SDS011;22245;52.832;13.816;2023-09-12T12:48:35;12.48;;;7.55;;
17763;SDS011;22245;52.832;13.816;2023-09-12T12:51:57;23.05;;;8.02;;
17763;SDS011;22245;52.832;13.816;2023-09-12T12:55:20;14.20;;;8.05;;
17763;SDS011;22245;52.832;13.816;2023-09-12T12:58:46;16.33;;;8.13;;
17763;SDS011;22245;52.832;13.816;2023-09-12T13:02:10;17.00;;;8.20;;
17763;SDS011;22245;52.832;13.816;2023-09-12T13:05:32;15.48;;;7.80;;
17763;SDS011;22245;52.832;13.816;2023-09-12T13:08:53;14.02;;;7.35;;
17763;SDS011;22245;52.832;13.816;2023-09-12T13:12:17;13.40;;;6.78;;
17763;SDS011;22245;52.832;13.816;2023-09-12T13:15:39;10.50;;;6.40;;
17763;SDS011;22245;52.832;13.816;2023-09-12T13:19:01;11.52;;;6.28;;
17763;SDS011;22245;52.832;13.816;2023-09-12T13:22:23;9.57;;;6.60;;
17763;SDS011;22245;52.832;13.816;2023-09-12T13:25:44;12.05;;;6.70;;
17763;SDS011;22245;52.832;13.816;2023-09-12T13:29:06;15.95;;;7.20;;
17763;SDS011;22245;52.832;13.816;2023-09-12T13:32:27;13.80;;;6.93;;
17763;SDS011;22245;52.832;13.816;2023-09-12T13:35:50;14.18;;;7.13;;
17763;SDS011;22245;52.832;13.816;2023-09-12T13:39:12;16.55;;;6.85;;
17763;SDS011;22245;52.832;13.816;2023-09-12T13:42:34;13.15;;;6.78;;
17763;SDS011;22245;52.832;13.816;2023-09-12T13:45:56;11.48;;;6.78;;
17763;SDS011;22245;52.832;13.816;2023-09-12T13:49:18;17.52;;;7.35;;
17763;SDS011;22245;52.832;13.816;2023-09-12T13:52:40;15.93;;;7.00;;
17763;SDS011;22245;52.832;13.816;2023-09-12T13:56:03;15.50;;;7.53;;
17763;SDS011;22245;52.832;13.816;2023-09-12T13:59:26;22.65;;;7.30;;
17763;SDS011;22245;52.832;13.816;2023-09-12T14:03:03;12.63;;;7.15;;
17763;SDS011;22245;52.832;13.816;2023-09-12T14:06:25;15.68;;;7.43;;
17763;SDS011;22245;52.832;13.816;2023-09-12T14:09:49;13.75;;;7.32;;
17763;SDS011;22245;52.832;13.816;2023-09-12T14:13:12;17.65;;;7.45;;
17763;SDS011;22245;52.832;13.816;2023-09-12T14:16:41;17.65;;;7.53;;
17763;SDS011;22245;52.832;13.816;2023-09-12T14:20:08;19.38;;;7.72;;
17763;SDS011;22245;52.832;13.816;2023-09-12T14:23:30;18.40;;;8.15;;
17763;SDS011;22245;52.832;13.816;2023-09-12T14:26:54;18.77;;;7.05;;
17763;SDS011;22245;52.832;13.816;2023-09-12T14:30:17;15.27;;;7.65;;
17763;SDS011;22245;52.832;13.816;2023-09-12T14:33:40;12.52;;;7.90;;
17763;SDS011;22245;52.832;13.816;2023-09-12T14:37:02;15.57;;;7.57;;
17763;SDS011;22245;52.832;13.816;2023-09-12T14:40:24;17.02;;;7.45;;
17763;SDS011;22245;52.832;13.816;2023-09-12T14:43:48;16.85;;;7.38;;
17763;SDS011;22245;52.832;13.816;2023-09-12T14:47:09;18.45;;;6.88;;
17763;SDS011;22245;52.832;13.816;2023-09-12T14:50:31;23.50;;;7.13;;
17763;SDS011;22245;52.832;13.816;2023-09-12T14:54:02;17.90;;;6.53;;
17763;SDS011;22245;52.832;13.816;2023-09-12T14:57:23;16.08;;;6.60;;
17763;SDS011;22245;52.832;13.816;2023-09-12T15:00:46;14.63;;;7.22;;
17763;SDS011;22245;52.832;13.816;2023-09-12T15:04:08;12.93;;;6.95;;
17763;SDS011;22245;52.832;13.816;2023-09-12T15:07:30;11.23;;;6.75;;
17763;SDS011;22245;52.832;13.816;2023-09-12T15:10:53;11.52;;;6.35;;
17763;SDS011;22245;52.832;13.816;2023-09-12T15:14:15;13.98;;;7.20;;
17763;SDS011;22245;52.832;13.816;2023-09-12T15:17:38;15.30;;;7.72;;
17763;SDS011;22245;52.832;13.816;2023-09-12T15:21:00;14.57;;;7.50;;
17763;SDS011;22245;52.832;13.816;2023-09-12T15:24:21;13.70;;;7.20;;
17763;SDS011;22245;52.832;13.816;2023-09-12T15:27:43;6.63;;;4.72;;
17763;SDS011;22245;52.832;13.816;2023-09-12T15:31:05;5.70;;;3.65;;
17763;SDS011;22245;52.832;13.816;2023-09-12T15:34:28;7.70;;;4.00;;
17763;SDS011;22245;52.832;13.816;2023-09-12T15:37:49;7.45;;;5.05;;
17763;SDS011;22245;52.832;13.816;2023-09-12T15:41:11;8.77;;;3.97;;
17763;SDS011;22245;52.832;13.816;2023-09-12T15:44:33;5.40;;;3.63;;
17763;SDS011;22245;52.832;13.816;2023-09-12T15:47:54;8.23;;;3.45;;
17763;SDS011;22245;52.832;13.816;2023-09-12T15:51:18;5.78;;;3.50;;
17763;SDS011;22245;52.832;13.816;2023-09-12T15:54:39;5.55;;;2.88;;
17763;SDS011;22245;52.832;13.816;2023-09-12T15:58:01;6.35;;;2.95;;
17763;SDS011;22245;52.832;13.816;2023-09-12T16:01:23;6.88;;;4.15;;
17763;SDS011;22245;52.832;13.816;2023-09-12T16:04:45;4.15;;;3.20;;
17763;SDS011;22245;52.832;13.816;2023-09-12T16:08:08;5.82;;;3.25;;
17763;SDS011;22245;52.832;13.816;2023-09-12T16:11:31;7.82;;;3.13;;
17763;SDS011;22245;52.832;13.816;2023-09-12T16:14:53;10.52;;;3.38;;
17763;SDS011;22245;52.832;13.816;2023-09-12T16:18:16;5.20;;;3.17;;
17763;SDS011;22245;52.832;13.816;2023-09-12T16:21:37;6.68;;;3.17;;
17763;SDS011;22245;52.832;13.816;2023-09-12T16:25:00;3.50;;;3.20;;
17763;SDS011;22245;52.832;13.816;2023-09-12T16:28:21;6.57;;;3.05;;
17763;SDS011;22245;52.832;13.816;2023-09-12T16:31:43;4.38;;;3.33;;
17763;SDS011;22245;52.832;13.816;2023-09-12T16:35:05;5.00;;;2.97;;
17763;SDS011;22245;52.832;13.816;2023-09-12T16:38:27;4.63;;;3.03;;
17763;SDS011;22245;52.832;13.816;2023-09-12T16:41:54;3.30;;;2.78;;
17763;SDS011;22245;52.832;13.816;2023-09-12T16:45:15;3.75;;;3.20;;
17763;SDS011;22245;52.832;13.816;2023-09-12T16:48:36;3.28;;;2.80;;
17763;SDS011;22245;52.832;13.816;2023-09-12T16:51:58;5.82;;;2.33;;
17763;SDS011;22245;52.832;13.816;2023-09-12T16:55:21;3.30;;;2.50;;
17763;SDS011;22245;52.832;13.816;2023-09-12T16:58:43;2.40;;;2.00;;
17763;SDS011;22245;52.832;13.816;2023-09-12T17:02:05;5.43;;;2.70;;
17763;SDS011;22245;52.832;13.816;2023-09-12T17:05:27;7.03;;;2.65;;
17763;SDS011;22245;52.832;13.816;2023-09-12T17:08:48;4.43;;;2.80;;
17763;SDS011;22245;52.832;13.816;2023-09-12T17:12:09;4.50;;;2.97;;
17763;SDS011;22245;52.832;13.816;2023-09-12T17:15:34;4.43;;;2.88;;
17763;SDS011;22245;52.832;13.816;2023-09-12T17:18:58;3.30;;;2.78;;
17763;SDS011;22245;52.832;13.816;2023-09-12T17:22:19;5.47;;;3.50;;
17763;SDS011;22245;52.832;13.816;2023-09-12T17:25:41;7.10;;;3.10;;
17763;SDS011;22245;52.832;13.816;2023-09-12T17:29:03;3.65;;;2.70;;
17763;SDS011;22245;52.832;13.816;2023-09-12T17:32:25;4.68;;;2.90;;
17763;SDS011;22245;52.832;13.816;2023-09-12T17:35:49;3.72;;;2.55;;
17763;SDS011;22245;52.832;13.816;2023-09-12T17:39:11;5.18;;;2.60;;
17763;SDS011;22245;52.832;13.816;2023-09-12T17:42:33;3.45;;;2.50;;
17763;SDS011;22245;52.832;13.816;2023-09-12T17:45:54;4.68;;;2.60;;
17763;SDS011;22245;52.832;13.816;2023-09-12T17:49:30;3.40;;;2.38;;
17763;SDS011;22245;52.832;13.816;2023-09-12T17:52:53;3.13;;;2.40;;
17763;SDS011;22245;52.832;13.816;2023-09-12T17:56:16;5.10;;;3.00;;
17763;SDS011;22245;52.832;13.816;2023-09-12T17:59:38;3.05;;;2.50;;
17763;SDS011;22245;52.832;13.816;2023-09-12T18:03:00;3.25;;;2.20;;
17763;SDS011;22245;52.832;13.816;2023-09-12T18:06:24;5.88;;;2.50;;
17763;SDS011;22245;52.832;13.816;2023-09-12T18:09:46;4.85;;;2.10;;
17763;SDS011;22245;52.832;13.816;2023-09-12T18:13:10;3.65;;;2.13;;
17763;SDS011;22245;52.832;13.816;2023-09-12T18:16:32;4.13;;;2.22;;
17763;SDS011;22245;52.832;13.816;2023-09-12T18:19:53;3.88;;;2.28;;
17763;SDS011;22245;52.832;13.816;2023-09-12T18:23:16;3.70;;;2.35;;
17763;SDS011;22245;52.832;13.816;2023-09-12T18:26:39;4.25;;;3.25;;
17763;SDS011;22245;52.832;13.816;2023-09-12T18:30:00;3.42;;;2.42;;
17763;SDS011;22245;52.832;13.816;2023-09-12T18:33:22;8.93;;;3.00;;
17763;SDS011;22245;52.832;13.816;2023-09-12T18:36:43;3.45;;;2.90;;
17763;SDS011;22245;52.832;13.816;2023-09-12T18:40:07;2.72;;;2.35;;
17763;SDS011;22245;52.832;13.816;2023-09-12T18:43:29;3.28;;;2.70;;
17763;SDS011;22245;52.832;13.816;2023-09-12T18:46:51;3.42;;;2.63;;
17763;SDS011;22245;52.832;13.816;2023-09-12T18:50:13;4.63;;;2.60;;
17763;SDS011;22245;52.832;13.816;2023-09-12T18:53:34;5.28;;;2.70;;
17763;SDS011;22245;52.832;13.816;2023-09-12T18:56:57;4.15;;;2.85;;
17763;SDS011;22245;52.832;13.816;2023-09-12T19:00:19;5.55;;;3.20;;
17763;SDS011;22245;52.832;13.816;2023-09-12T19:03:41;4.10;;;2.75;;
17763;SDS011;22245;52.832;13.816;2023-09-12T19:07:04;6.18;;;4.00;;
17763;SDS011;22245;52.832;13.816;2023-09-12T19:10:26;5.18;;;3.47;;
17763;SDS011;22245;52.832;13.816;2023-09-12T19:13:50;9.18;;;4.03;;
17763;SDS011;22245;52.832;13.816;2023-09-12T19:17:11;3.88;;;3.35;;
17763;SDS011;22245;52.832;13.816;2023-09-12T19:20:33;4.78;;;3.40;;
17763;SDS011;22245;52.832;13.816;2023-09-12T19:23:55;5.57;;;3.40;;
17763;SDS011;22245;52.832;13.816;2023-09-12T19:27:17;4.63;;;3.10;;
17763;SDS011;22245;52.832;13.816;2023-09-12T19:30:40;4.70;;;2.92;;
17763;SDS011;22245;52.832;13.816;2023-09-12T19:34:02;4.97;;;3.60;;
17763;SDS011;22245;52.832;13.816;2023-09-12T19:37:27;4.22;;;3.33;;
17763;SDS011;22245;52.832;13.816;2023-09-12T19:40:55;5.20;;;3.60;;
17763;SDS011;22245;52.832;13.816;2023-09-12T19:44:17;5.10;;;3.40;;